createdAt,value
2017-10-26T00:01:03.031Z,15.57
2017-10-26T00:03:30.583Z,14.60
2017-10-26T00:05:58.303Z,15.07
2017-10-26T00:08:25.831Z,14.67
2017-10-26T00:10:53.363Z,13.53
2017-10-26T00:13:21.332Z,14.13
2017-10-26T00:15:48.859Z,14.57
2017-10-26T00:18:16.457Z,15.10
2017-10-26T00:20:45.036Z,15.30
2017-10-26T00:23:12.565Z,15.03
2017-10-26T00:25:40.085Z,14.03
2017-10-26T00:28:07.915Z,16.63
2017-10-26T00:30:35.477Z,15.60
2017-10-26T00:33:03.009Z,17.63
2017-10-26T00:35:31.104Z,15.60
2017-10-26T00:37:58.663Z,16.60
2017-10-26T00:40:26.234Z,18.20
2017-10-26T00:42:53.991Z,16.97
2017-10-26T00:45:21.515Z,16.80
2017-10-26T00:47:49.044Z,15.73
2017-10-26T00:50:16.885Z,17.40
2017-10-26T00:52:44.428Z,16.80
2017-10-26T00:55:11.988Z,19.33
2017-10-26T00:57:39.642Z,19.97
2017-10-26T01:00:07.164Z,19.97
2017-10-26T01:02:34.688Z,18.37
2017-10-26T01:05:02.255Z,18.27
2017-10-26T01:07:29.807Z,18.90
2017-10-26T01:09:57.334Z,20.20
2017-10-26T01:12:24.904Z,20.80
2017-10-26T01:14:52.461Z,19.40
2017-10-26T01:17:20.443Z,19.60
2017-10-26T01:19:47.994Z,21.10
2017-10-26T01:22:15.546Z,21.77
2017-10-26T01:24:43.106Z,20.77
2017-10-26T01:27:11.689Z,21.83
2017-10-26T01:29:39.250Z,22.33
2017-10-26T01:32:06.835Z,20.67
2017-10-26T01:34:34.550Z,22.40
2017-10-26T01:37:02.071Z,24.17
2017-10-26T01:39:29.690Z,22.37
2017-10-26T01:41:57.352Z,23.50
2017-10-26T01:44:24.887Z,26.00
2017-10-26T01:46:52.411Z,21.63
2017-10-26T01:49:20.849Z,22.90
2017-10-26T01:51:48.407Z,24.43
2017-10-26T01:54:15.967Z,21.97
2017-10-26T01:56:43.555Z,22.23
2017-10-26T01:59:11.095Z,21.00
2017-10-26T02:01:38.643Z,20.90
2017-10-26T02:04:06.407Z,22.00
2017-10-26T02:06:33.948Z,22.57
2017-10-26T02:09:01.524Z,21.93
2017-10-26T02:11:29.289Z,21.17
2017-10-26T02:13:56.848Z,22.80
2017-10-26T02:16:24.408Z,22.93
2017-10-26T02:18:52.172Z,23.40
2017-10-26T02:21:19.732Z,20.47
2017-10-26T02:23:47.290Z,22.63
2017-10-26T02:26:15.053Z,22.60
2017-10-26T02:28:54.616Z,25.00
2017-10-26T02:31:34.052Z,25.27
2017-10-26T02:34:01.591Z,24.83
2017-10-26T02:36:29.150Z,24.67
2017-10-26T02:38:56.913Z,22.80
2017-10-26T02:41:24.453Z,23.40
2017-10-26T02:43:51.977Z,23.93
2017-10-26T02:46:19.796Z,22.30
2017-10-26T02:48:48.276Z,23.10
2017-10-26T02:51:15.819Z,22.20
2017-10-26T02:53:43.599Z,21.93
2017-10-26T02:56:11.158Z,22.60
2017-10-26T02:58:38.718Z,25.40
2017-10-26T03:01:06.481Z,23.33
2017-10-26T03:03:34.020Z,26.40
2017-10-26T03:06:01.543Z,24.47
2017-10-26T03:08:29.575Z,25.63
2017-10-26T03:10:57.128Z,25.40
2017-10-26T03:13:24.686Z,26.53
2017-10-26T03:15:52.451Z,27.77
2017-10-26T03:18:20.009Z,29.37
2017-10-26T03:20:47.569Z,24.13
2017-10-26T03:23:15.332Z,31.83
2017-10-26T03:25:42.893Z,27.37
2017-10-26T03:28:10.463Z,29.40
2017-10-26T03:30:38.411Z,27.07
2017-10-26T03:33:05.980Z,29.10
2017-10-26T03:35:33.538Z,26.97
2017-10-26T03:38:01.507Z,29.12
2017-10-26T03:40:29.474Z,28.73
2017-10-26T03:42:57.050Z,31.52
2017-10-26T03:45:24.887Z,32.35
2017-10-26T03:47:53.284Z,30.95
2017-10-26T03:50:20.839Z,27.33
2017-10-26T03:52:48.419Z,33.43
2017-10-26T03:55:15.959Z,27.27
2017-10-26T03:57:43.515Z,28.17
2017-10-26T04:00:11.262Z,29.77
2017-10-26T04:02:38.798Z,31.52
2017-10-26T04:05:07.114Z,29.70
2017-10-26T04:07:34.881Z,29.30
2017-10-26T04:10:02.438Z,29.10
2017-10-26T04:12:29.999Z,26.10
2017-10-26T04:14:57.760Z,24.67
2017-10-26T04:17:25.321Z,24.42
2017-10-26T04:19:52.879Z,25.40
2017-10-26T04:22:20.622Z,23.00
2017-10-26T04:24:48.144Z,24.83
2017-10-26T04:27:15.673Z,25.10
2017-10-26T04:29:44.139Z,24.43
2017-10-26T04:32:11.676Z,24.83
2017-10-26T04:34:39.211Z,24.48
2017-10-26T04:37:07.021Z,25.90
2017-10-26T04:39:34.581Z,25.80
2017-10-26T04:42:02.107Z,21.70
2017-10-26T04:44:29.906Z,25.70
2017-10-26T04:46:57.443Z,25.25
2017-10-26T04:49:24.975Z,24.50
2017-10-26T04:51:52.686Z,22.40
2017-10-26T04:54:20.242Z,22.53
2017-10-26T04:56:47.801Z,23.77
2017-10-26T04:59:15.979Z,22.20
2017-10-26T05:01:44.457Z,22.33
2017-10-26T05:04:12.018Z,23.00
2017-10-26T05:06:39.781Z,21.90
2017-10-26T05:09:07.337Z,23.62
2017-10-26T05:11:34.904Z,26.08
2017-10-26T05:14:02.752Z,26.52
2017-10-26T05:16:30.323Z,25.95
2017-10-26T05:18:57.882Z,24.25
2017-10-26T05:21:25.646Z,26.15
2017-10-26T05:23:53.614Z,26.45
2017-10-26T05:26:21.133Z,25.00
2017-10-26T05:28:48.731Z,23.83
2017-10-26T05:31:16.909Z,23.80
2017-10-26T05:33:44.464Z,23.92
2017-10-26T05:36:12.229Z,23.80
2017-10-26T05:38:40.237Z,23.80
2017-10-26T05:41:07.780Z,24.73
2017-10-26T05:43:35.368Z,23.40
2017-10-26T05:46:02.899Z,25.07
2017-10-26T05:48:30.438Z,24.42
2017-10-26T05:50:58.021Z,22.30
2017-10-26T05:53:25.571Z,27.17
2017-10-26T05:55:53.112Z,25.98
2017-10-26T05:58:20.876Z,29.83
2017-10-26T06:00:48.452Z,28.70
2017-10-26T06:03:15.996Z,27.05
2017-10-26T06:05:43.843Z,21.80
2017-10-26T06:08:11.419Z,23.90
2017-10-26T06:10:38.978Z,22.42
2017-10-26T06:13:06.679Z,26.83
2017-10-26T06:15:34.220Z,32.65
2017-10-26T06:18:02.271Z,28.08
2017-10-26T06:20:29.846Z,36.30
2017-10-26T06:22:57.388Z,27.55
2017-10-26T06:25:24.948Z,33.10
2017-10-26T06:27:52.918Z,30.30
2017-10-26T06:30:20.475Z,29.17
2017-10-26T06:32:48.016Z,28.83
2017-10-26T06:35:15.779Z,30.25
2017-10-26T06:37:43.363Z,27.27
2017-10-26T06:40:10.917Z,26.98
2017-10-26T06:42:38.885Z,31.35
2017-10-26T06:45:06.444Z,27.27
2017-10-26T06:47:33.971Z,25.33
2017-10-26T06:50:01.854Z,33.20
2017-10-26T06:52:29.430Z,28.45
2017-10-26T06:54:56.963Z,29.57
2017-10-26T06:57:24.547Z,24.93
2017-10-26T06:59:52.515Z,20.07
2017-10-26T07:02:20.043Z,21.30
2017-10-26T07:04:47.819Z,20.53
2017-10-26T07:07:15.352Z,17.57
2017-10-26T07:09:42.893Z,20.37
2017-10-26T07:12:10.566Z,20.55
2017-10-26T07:14:38.111Z,19.23
2017-10-26T07:17:05.637Z,20.57
2017-10-26T07:19:33.383Z,18.37
2017-10-26T07:22:00.924Z,20.02
2017-10-26T07:24:28.450Z,19.43
2017-10-26T07:26:56.191Z,19.63
2017-10-26T07:29:23.718Z,18.77
2017-10-26T07:31:51.297Z,19.90
2017-10-26T07:34:19.062Z,18.20
2017-10-26T07:36:46.632Z,17.43
2017-10-26T07:39:14.178Z,15.90
2017-10-26T07:41:42.149Z,17.13
2017-10-26T07:44:09.773Z,15.70
2017-10-26T07:46:37.301Z,14.00
2017-10-26T07:49:05.644Z,14.93
2017-10-26T07:51:33.172Z,14.53
2017-10-26T07:54:00.762Z,14.00
2017-10-26T07:56:28.455Z,15.27
2017-10-26T07:58:55.987Z,13.63
2017-10-26T08:01:23.520Z,13.50
2017-10-26T08:03:51.088Z,13.40
2017-10-26T08:06:19.069Z,13.27
2017-10-26T08:08:46.629Z,12.47
2017-10-26T08:11:14.391Z,12.80
2017-10-26T08:13:42.003Z,11.03
2017-10-26T08:16:09.527Z,12.23
2017-10-26T08:18:37.211Z,11.30
2017-10-26T08:21:04.732Z,13.63
2017-10-26T08:23:32.394Z,12.83
2017-10-26T08:25:59.964Z,11.60
2017-10-26T08:28:27.500Z,13.30
2017-10-26T08:30:55.067Z,10.90
2017-10-26T08:33:22.813Z,11.07
2017-10-26T08:35:50.335Z,9.90
2017-10-26T08:38:18.772Z,10.53
2017-10-26T08:40:46.346Z,10.73
2017-10-26T08:43:13.873Z,9.90
2017-10-26T08:45:41.393Z,9.90
2017-10-26T08:48:09.532Z,10.03
2017-10-26T08:50:37.069Z,10.67
2017-10-26T08:53:04.591Z,10.33
2017-10-26T08:55:32.300Z,9.93
2017-10-26T08:57:59.859Z,9.97
2017-10-26T09:00:27.419Z,10.53
2017-10-26T09:02:55.181Z,11.57
2017-10-26T09:05:22.740Z,9.57
2017-10-26T09:07:50.291Z,10.67
2017-10-26T09:10:17.858Z,9.30
2017-10-26T09:12:45.420Z,10.60
2017-10-26T09:15:12.978Z,8.30
2017-10-26T09:17:41.663Z,9.13
2017-10-26T09:20:09.223Z,8.33
2017-10-26T09:22:36.797Z,8.50
2017-10-26T09:25:04.653Z,9.00
2017-10-26T09:27:32.784Z,7.27
2017-10-26T09:30:00.381Z,7.93
2017-10-26T09:32:28.127Z,8.37
2017-10-26T09:34:55.649Z,8.50
2017-10-26T09:37:23.185Z,8.10
2017-10-26T09:39:51.232Z,7.97
2017-10-26T09:42:18.791Z,8.40
2017-10-26T09:44:46.315Z,8.00
2017-10-26T09:47:13.990Z,7.80
2017-10-26T09:49:42.391Z,7.90
2017-10-26T09:52:09.950Z,7.27
2017-10-26T09:54:37.508Z,7.80
2017-10-26T09:57:05.066Z,7.80
2017-10-26T09:59:32.626Z,7.17
2017-10-26T10:02:01.311Z,7.63
2017-10-26T10:04:28.871Z,7.47
2017-10-26T10:06:56.430Z,6.60
2017-10-26T10:09:24.083Z,7.80
2017-10-26T10:11:51.599Z,6.70
2017-10-26T10:14:19.112Z,6.77
2017-10-26T10:16:47.632Z,6.23
2017-10-26T10:19:15.152Z,6.07
2017-10-26T10:21:42.707Z,5.70
2017-10-26T10:24:10.573Z,6.00
2017-10-26T10:26:39.506Z,6.20
2017-10-26T10:29:07.023Z,5.87
2017-10-26T10:31:34.786Z,5.50
2017-10-26T10:34:02.344Z,6.10
2017-10-26T10:36:30.314Z,5.43
2017-10-26T10:38:58.082Z,5.70
2017-10-26T10:41:25.602Z,5.80
2017-10-26T10:43:53.601Z,5.40
2017-10-26T10:46:21.299Z,4.73
2017-10-26T10:48:48.821Z,4.33
2017-10-26T10:51:16.339Z,4.40
2017-10-26T10:53:44.234Z,5.10
2017-10-26T10:56:11.759Z,4.97
2017-10-26T10:58:39.281Z,4.60
2017-10-26T11:01:07.011Z,5.23
2017-10-26T11:03:34.531Z,6.03
2017-10-26T11:06:02.048Z,5.70
2017-10-26T11:08:29.605Z,5.40
2017-10-26T11:10:57.127Z,5.30
2017-10-26T11:13:25.134Z,6.23
2017-10-26T11:15:52.897Z,6.30
2017-10-26T11:18:20.412Z,7.13
2017-10-26T11:20:47.939Z,7.17
2017-10-26T11:23:15.693Z,7.13
2017-10-26T11:25:43.211Z,7.37
2017-10-26T11:28:10.735Z,6.73
2017-10-26T11:30:38.457Z,6.40
2017-10-26T11:33:06.017Z,6.60
2017-10-26T11:35:33.576Z,6.33
2017-10-26T11:38:01.319Z,5.80
2017-10-26T11:40:28.835Z,6.23
2017-10-26T11:42:56.387Z,6.60
2017-10-26T11:45:24.026Z,6.13
2017-10-26T11:47:51.575Z,6.03
2017-10-26T11:50:19.136Z,7.57
2017-10-26T11:52:46.698Z,6.30
2017-10-26T11:55:14.254Z,7.37
2017-10-26T11:57:43.391Z,6.33
2017-10-26T12:00:11.026Z,6.60
2017-10-26T12:02:38.679Z,6.70
2017-10-26T12:05:06.217Z,6.63
2017-10-26T12:07:33.784Z,7.60
2017-10-26T12:10:02.271Z,6.77
2017-10-26T12:12:29.798Z,7.23
2017-10-26T12:14:57.390Z,11.40
2017-10-26T12:17:24.915Z,8.37
2017-10-26T12:19:52.448Z,7.77
2017-10-26T12:22:20.046Z,7.77
2017-10-26T12:24:47.625Z,8.00
2017-10-26T12:27:15.185Z,8.73
2017-10-26T12:29:43.051Z,8.10
2017-10-26T12:32:10.623Z,7.90
2017-10-26T12:34:38.169Z,8.17
2017-10-26T12:37:06.019Z,7.90
2017-10-26T12:39:33.780Z,8.57
2017-10-26T12:42:01.376Z,8.47
2017-10-26T12:44:28.928Z,8.97
2017-10-26T12:46:56.476Z,7.73
2017-10-26T12:49:24.052Z,9.50
2017-10-26T12:51:51.902Z,8.23
2017-10-26T12:54:19.584Z,8.63
2017-10-26T12:56:47.147Z,8.70
2017-10-26T12:59:14.812Z,8.77
2017-10-26T13:01:42.352Z,9.40
2017-10-26T13:04:09.906Z,8.70
2017-10-26T13:06:37.755Z,9.93
2017-10-26T13:09:05.375Z,9.13
2017-10-26T13:11:32.895Z,9.73
2017-10-26T13:14:00.739Z,9.87
2017-10-26T13:16:28.314Z,10.20
2017-10-26T13:18:55.871Z,11.27
2017-10-26T13:21:23.435Z,10.53
2017-10-26T13:23:50.990Z,10.70
2017-10-26T13:26:19.495Z,10.97
2017-10-26T13:28:47.059Z,11.13
2017-10-26T13:31:14.595Z,11.03
2017-10-26T13:33:42.112Z,11.80
2017-10-26T13:36:09.905Z,12.17
2017-10-26T13:38:37.424Z,13.00
2017-10-26T13:41:04.952Z,12.23
2017-10-26T13:43:32.674Z,12.80
2017-10-26T13:46:01.174Z,12.73
2017-10-26T13:48:28.704Z,14.30
2017-10-26T13:50:56.376Z,12.10
2017-10-26T13:53:23.953Z,12.17
2017-10-26T13:55:51.478Z,12.30
2017-10-26T13:58:19.275Z,10.47
2017-10-26T14:00:46.796Z,12.60
2017-10-26T14:03:14.327Z,12.07
2017-10-26T14:05:41.887Z,11.07
2017-10-26T14:08:09.414Z,12.43
2017-10-26T14:10:36.969Z,11.20
2017-10-26T14:13:04.938Z,11.07
2017-10-26T14:15:32.502Z,11.33
2017-10-26T14:18:00.043Z,12.07
2017-10-26T14:20:27.904Z,11.10
2017-10-26T14:22:55.447Z,11.87
2017-10-26T14:25:22.995Z,11.20
2017-10-26T14:27:50.961Z,12.60
2017-10-26T14:30:18.514Z,10.10
2017-10-26T14:32:46.044Z,11.10
2017-10-26T14:35:13.930Z,11.17
2017-10-26T14:37:42.475Z,12.10
2017-10-26T14:40:10.060Z,11.43
2017-10-26T14:42:37.998Z,11.67
2017-10-26T14:45:05.768Z,12.17
2017-10-26T14:47:33.346Z,11.17
2017-10-26T14:50:00.931Z,11.10
2017-10-26T14:52:28.547Z,10.77
2017-10-26T14:54:56.688Z,10.37
2017-10-26T14:57:24.488Z,10.30
2017-10-26T14:59:52.081Z,10.20
2017-10-26T15:02:19.657Z,9.90
2017-10-26T15:04:47.775Z,10.40
2017-10-26T15:07:15.658Z,10.97
2017-10-26T15:09:43.406Z,9.10
2017-10-26T15:12:11.169Z,9.40
2017-10-26T15:14:38.942Z,10.83
2017-10-26T15:17:06.494Z,10.23
2017-10-26T15:19:34.256Z,9.60
2017-10-26T15:22:01.919Z,8.63
2017-10-26T15:24:29.682Z,9.80
2017-10-26T15:26:57.260Z,9.60
2017-10-26T15:29:24.812Z,9.83
2017-10-26T15:31:52.361Z,8.23
2017-10-26T15:34:20.124Z,9.60
2017-10-26T15:36:47.703Z,8.70
2017-10-26T15:39:15.273Z,8.20
2017-10-26T15:41:42.837Z,8.43
2017-10-26T15:44:10.975Z,8.07
2017-10-26T15:46:38.635Z,10.30
2017-10-26T15:49:06.506Z,9.03
2017-10-26T15:51:34.062Z,8.00
2017-10-26T15:54:01.724Z,8.50
2017-10-26T15:56:29.590Z,7.60
2017-10-26T15:58:57.165Z,8.50
2017-10-26T16:01:24.720Z,8.90
2017-10-26T16:03:52.482Z,7.77
2017-10-26T16:06:20.338Z,9.57
2017-10-26T16:08:47.955Z,8.30
2017-10-26T16:11:15.751Z,10.10
2017-10-26T16:13:43.368Z,8.63
2017-10-26T16:16:11.089Z,9.93
2017-10-26T16:18:38.967Z,10.43
2017-10-26T16:21:06.720Z,11.70
2017-10-26T16:23:34.378Z,10.13
2017-10-26T16:26:02.012Z,11.60
2017-10-26T16:28:29.717Z,13.33
2017-10-26T16:30:57.577Z,13.90
2017-10-26T16:33:25.353Z,18.40
2017-10-26T16:35:53.095Z,16.77
2017-10-26T16:38:20.655Z,14.50
2017-10-26T16:40:48.403Z,17.10
2017-10-26T16:43:15.945Z,36.00
2017-10-26T16:45:43.538Z,32.37
2017-10-26T16:48:11.297Z,31.43
2017-10-26T16:50:38.888Z,48.87
2017-10-26T16:53:06.459Z,68.30
2017-10-26T16:55:34.081Z,60.13
2017-10-26T16:58:01.696Z,51.27
2017-10-26T17:00:29.534Z,44.13
2017-10-26T17:02:57.562Z,37.47
2017-10-26T17:05:25.347Z,32.23
2017-10-26T17:07:52.980Z,19.97
2017-10-26T17:10:20.884Z,14.77
2017-10-26T17:12:48.633Z,15.77
2017-10-26T17:15:16.269Z,16.43
2017-10-26T17:17:44.059Z,14.93
2017-10-26T17:20:12.415Z,14.20
2017-10-26T17:22:40.085Z,15.30
2017-10-26T17:25:08.272Z,14.90
2017-10-26T17:27:35.843Z,14.67
2017-10-26T17:30:03.390Z,13.70
2017-10-26T17:32:31.165Z,15.57
2017-10-26T17:34:58.737Z,14.93
2017-10-26T17:37:26.472Z,15.60
2017-10-26T17:39:54.270Z,14.63
2017-10-26T17:42:21.848Z,23.07
2017-10-26T17:44:49.563Z,23.60
2017-10-26T17:47:17.326Z,20.97
2017-10-26T17:49:45.096Z,21.90
2017-10-26T17:52:12.759Z,19.17
2017-10-26T17:54:40.780Z,18.77
2017-10-26T17:57:08.405Z,15.77
2017-10-26T17:59:36.111Z,14.97
2017-10-26T18:02:04.137Z,13.60
2017-10-26T18:04:31.984Z,15.43
2017-10-26T18:06:59.815Z,12.67
2017-10-26T18:09:27.658Z,15.77
2017-10-26T18:11:55.396Z,15.17
2017-10-26T18:14:23.143Z,14.40
2017-10-26T18:16:51.225Z,13.50
2017-10-26T18:19:19.797Z,14.60
2017-10-26T18:21:47.577Z,12.50
2017-10-26T18:24:15.633Z,14.50
2017-10-26T18:26:43.292Z,13.03
2017-10-26T18:29:11.161Z,14.13
2017-10-26T18:31:39.229Z,12.50
2017-10-26T18:34:07.731Z,12.80
2017-10-26T18:36:36.610Z,13.30
2017-10-26T18:39:04.839Z,12.47
2017-10-26T18:41:33.370Z,14.20
2017-10-26T18:44:01.129Z,15.77
2017-10-26T18:46:29.000Z,14.90
2017-10-26T18:48:57.356Z,13.27
2017-10-26T18:51:25.152Z,13.87
2017-10-26T18:53:53.303Z,14.83
2017-10-26T18:56:21.131Z,14.20
2017-10-26T18:58:49.039Z,11.47
2017-10-26T19:01:17.032Z,14.80
2017-10-26T19:03:44.775Z,15.80
2017-10-26T19:06:12.634Z,14.70
2017-10-26T19:08:41.226Z,13.60
2017-10-26T19:11:10.780Z,14.17
2017-10-26T19:13:39.026Z,14.03
2017-10-26T19:16:07.175Z,13.70
2017-10-26T19:18:34.960Z,13.70
2017-10-26T19:21:03.111Z,13.30
2017-10-26T19:23:30.937Z,12.77
2017-10-26T19:25:59.687Z,13.23
2017-10-26T19:28:27.441Z,13.60
2017-10-26T19:30:56.432Z,14.80
2017-10-26T19:33:24.493Z,15.57
2017-10-26T19:35:52.274Z,14.80
2017-10-26T19:38:20.530Z,14.80
2017-10-26T19:40:48.464Z,12.97
2017-10-26T19:43:16.281Z,12.60
2017-10-26T19:45:44.112Z,13.57
2017-10-26T19:48:11.795Z,13.87
2017-10-26T19:50:39.672Z,13.30
2017-10-26T19:53:07.623Z,12.00
2017-10-26T19:55:35.405Z,13.37
2017-10-26T19:58:03.166Z,14.20
2017-10-26T20:00:31.125Z,12.60
2017-10-26T20:02:58.886Z,11.77
2017-10-26T20:05:26.554Z,14.23
2017-10-26T20:07:54.413Z,14.00
2017-10-26T20:10:22.013Z,12.47
2017-10-26T20:12:49.667Z,13.37
2017-10-26T20:15:17.607Z,13.47
2017-10-26T20:17:46.299Z,13.57
2017-10-26T20:20:13.949Z,15.37
2017-10-26T20:22:43.052Z,15.20
2017-10-26T20:25:10.810Z,13.77
2017-10-26T20:27:38.580Z,13.47
2017-10-26T20:30:06.543Z,13.03
2017-10-26T20:32:35.212Z,15.03
2017-10-26T20:35:03.031Z,14.20
2017-10-26T20:37:30.932Z,16.10
2017-10-26T20:39:58.572Z,15.53
2017-10-26T20:42:26.131Z,15.67
2017-10-26T20:44:53.800Z,14.07
2017-10-26T20:47:21.510Z,14.43
2017-10-26T20:49:55.208Z,13.97
2017-10-26T20:52:28.406Z,16.20
2017-10-26T20:55:01.474Z,15.20
2017-10-26T20:57:34.421Z,15.27
2017-10-26T21:00:07.743Z,14.00
2017-10-26T21:02:41.178Z,14.63
2017-10-26T21:05:15.022Z,13.90
2017-10-26T21:07:48.368Z,14.10
2017-10-26T21:10:21.747Z,14.43
2017-10-26T21:12:55.084Z,14.73
2017-10-26T21:15:22.834Z,15.60
2017-10-26T21:17:50.482Z,13.10
2017-10-26T21:20:18.040Z,13.83
2017-10-26T21:22:45.692Z,14.33
2017-10-26T21:25:13.264Z,14.70
2017-10-26T21:27:40.818Z,15.07
2017-10-26T21:30:08.583Z,14.27
2017-10-26T21:32:36.149Z,13.40
2017-10-26T21:35:03.684Z,14.03
2017-10-26T21:37:31.239Z,14.13
2017-10-26T21:39:58.760Z,16.97
2017-10-26T21:42:26.278Z,13.40
2017-10-26T21:44:54.040Z,14.90
2017-10-26T21:47:21.617Z,14.73
2017-10-26T21:49:49.150Z,16.63
2017-10-26T21:52:16.725Z,16.87
2017-10-26T21:54:44.247Z,16.67
2017-10-26T21:57:11.772Z,17.30
2017-10-26T21:59:39.598Z,19.57
2017-10-26T22:02:07.165Z,19.20
2017-10-26T22:04:34.717Z,21.00
2017-10-26T22:07:02.486Z,20.77
2017-10-26T22:09:30.020Z,16.80
2017-10-26T22:11:57.544Z,16.70
2017-10-26T22:14:25.112Z,16.43
2017-10-26T22:16:52.652Z,15.30
2017-10-26T22:19:20.180Z,15.70
2017-10-26T22:21:48.042Z,18.03
2017-10-26T22:24:15.600Z,15.70
2017-10-26T22:26:43.166Z,18.37
2017-10-26T22:29:10.923Z,17.70
2017-10-26T22:31:38.483Z,17.67
2017-10-26T22:34:06.042Z,17.23
2017-10-26T22:36:33.783Z,15.23
2017-10-26T22:39:01.304Z,16.20
2017-10-26T22:41:28.827Z,17.80
2017-10-26T22:43:56.387Z,17.87
2017-10-26T22:46:24.144Z,17.17
2017-10-26T22:48:51.734Z,16.53
2017-10-26T22:51:19.311Z,16.67
2017-10-26T22:53:46.840Z,15.17
2017-10-26T22:56:14.428Z,14.47
2017-10-26T22:58:42.147Z,13.27
2017-10-26T23:01:09.703Z,13.10
2017-10-26T23:03:37.271Z,14.40
2017-10-26T23:06:04.852Z,14.60
2017-10-26T23:08:32.372Z,14.93
2017-10-26T23:10:59.903Z,14.67
2017-10-26T23:13:27.908Z,14.80
2017-10-26T23:15:55.469Z,14.53
2017-10-26T23:18:23.027Z,15.83
2017-10-26T23:20:50.894Z,14.23
2017-10-26T23:23:18.453Z,17.70
2017-10-26T23:25:46.012Z,15.40
2017-10-26T23:28:13.863Z,14.00
2017-10-26T23:30:41.397Z,14.40
2017-10-26T23:33:08.915Z,14.90
2017-10-26T23:35:36.645Z,14.90
2017-10-26T23:38:04.219Z,15.23
2017-10-26T23:40:31.746Z,15.90
2017-10-26T23:42:59.541Z,14.10
2017-10-26T23:45:27.070Z,13.97
2017-10-26T23:47:54.592Z,15.90
2017-10-26T23:50:22.319Z,13.33
2017-10-26T23:52:49.879Z,14.90
2017-10-26T23:55:17.437Z,14.67
2017-10-26T23:57:45.315Z,14.30
